sensor_id;sensor_type;location;lat;lon;timestamp;P1;durP1;ratioP1;P2;durP2;ratioP2
11839;SDS011;5979;50.800;4.904;2023-01-19T00:02:20;15.53;;;10.87;;
11839;SDS011;5979;50.800;4.904;2023-01-19T00:04:46;12.97;;;11.00;;
11839;SDS011;5979;50.800;4.904;2023-01-19T00:07:12;16.20;;;11.30;;
11839;SDS011;5979;50.800;4.904;2023-01-19T00:09:38;14.07;;;10.53;;
11839;SDS011;5979;50.800;4.904;2023-01-19T00:12:04;16.10;;;11.13;;
11839;SDS011;5979;50.800;4.904;2023-01-19T00:14:30;13.93;;;10.23;;
11839;SDS011;5979;50.800;4.904;2023-01-19T00:16:55;13.13;;;10.30;;
11839;SDS011;5979;50.800;4.904;2023-01-19T00:19:21;12.33;;;10.17;;
11839;SDS011;5979;50.800;4.904;2023-01-19T00:21:47;14.57;;;10.87;;
11839;SDS011;5979;50.800;4.904;2023-01-19T00:24:13;15.13;;;11.13;;
11839;SDS011;5979;50.800;4.904;2023-01-19T00:26:39;14.97;;;11.10;;
11839;SDS011;5979;50.800;4.904;2023-01-19T00:29:07;15.70;;;11.53;;
11839;SDS011;5979;50.800;4.904;2023-01-19T00:31:37;15.47;;;11.53;;
11839;SDS011;5979;50.800;4.904;2023-01-19T00:34:03;17.40;;;10.67;;
11839;SDS011;5979;50.800;4.904;2023-01-19T00:36:31;16.77;;;12.40;;
11839;SDS011;5979;50.800;4.904;2023-01-19T00:38:58;17.87;;;11.00;;
11839;SDS011;5979;50.800;4.904;2023-01-19T00:41:23;17.23;;;11.17;;
11839;SDS011;5979;50.800;4.904;2023-01-19T00:44:08;13.87;;;10.73;;
11839;SDS011;5979;50.800;4.904;2023-01-19T00:46:35;15.93;;;11.93;;
11839;SDS011;5979;50.800;4.904;2023-01-19T00:49:01;16.23;;;11.80;;
11839;SDS011;5979;50.800;4.904;2023-01-19T00:51:27;19.47;;;11.60;;
11839;SDS011;5979;50.800;4.904;2023-01-19T00:53:53;16.73;;;11.23;;
11839;SDS011;5979;50.800;4.904;2023-01-19T00:56:18;15.23;;;11.03;;
11839;SDS011;5979;50.800;4.904;2023-01-19T00:58:44;18.37;;;12.47;;
11839;SDS011;5979;50.800;4.904;2023-01-19T01:01:10;19.17;;;12.37;;
11839;SDS011;5979;50.800;4.904;2023-01-19T01:03:36;17.07;;;11.67;;
11839;SDS011;5979;50.800;4.904;2023-01-19T01:06:02;17.37;;;12.27;;
11839;SDS011;5979;50.800;4.904;2023-01-19T01:08:31;20.43;;;11.97;;
11839;SDS011;5979;50.800;4.904;2023-01-19T01:10:57;22.27;;;12.23;;
11839;SDS011;5979;50.800;4.904;2023-01-19T01:13:23;18.67;;;12.37;;
11839;SDS011;5979;50.800;4.904;2023-01-19T01:15:49;17.07;;;11.30;;
11839;SDS011;5979;50.800;4.904;2023-01-19T01:18:18;20.43;;;12.60;;
11839;SDS011;5979;50.800;4.904;2023-01-19T01:20:44;19.50;;;12.67;;
11839;SDS011;5979;50.800;4.904;2023-01-19T01:23:10;19.40;;;12.73;;
11839;SDS011;5979;50.800;4.904;2023-01-19T01:25:36;18.10;;;12.03;;
11839;SDS011;5979;50.800;4.904;2023-01-19T01:28:06;16.80;;;12.03;;
11839;SDS011;5979;50.800;4.904;2023-01-19T01:30:35;18.33;;;12.53;;
11839;SDS011;5979;50.800;4.904;2023-01-19T01:33:05;17.23;;;12.53;;
11839;SDS011;5979;50.800;4.904;2023-01-19T01:35:31;16.60;;;11.40;;
11839;SDS011;5979;50.800;4.904;2023-01-19T01:38:00;15.40;;;11.53;;
11839;SDS011;5979;50.800;4.904;2023-01-19T01:40:26;20.57;;;12.20;;
11839;SDS011;5979;50.800;4.904;2023-01-19T01:42:52;18.80;;;12.07;;
11839;SDS011;5979;50.800;4.904;2023-01-19T01:45:32;18.07;;;11.93;;
11839;SDS011;5979;50.800;4.904;2023-01-19T01:48:02;17.50;;;11.27;;
11839;SDS011;5979;50.800;4.904;2023-01-19T01:50:38;17.87;;;11.57;;
11839;SDS011;5979;50.800;4.904;2023-01-19T01:53:32;16.00;;;11.37;;
11839;SDS011;5979;50.800;4.904;2023-01-19T01:55:59;18.67;;;11.47;;
11839;SDS011;5979;50.800;4.904;2023-01-19T01:58:28;17.50;;;12.13;;
11839;SDS011;5979;50.800;4.904;2023-01-19T02:00:55;17.97;;;11.93;;
11839;SDS011;5979;50.800;4.904;2023-01-19T02:03:39;15.03;;;10.80;;
11839;SDS011;5979;50.800;4.904;2023-01-19T02:06:05;18.87;;;12.00;;
11839;SDS011;5979;50.800;4.904;2023-01-19T02:08:34;16.77;;;11.07;;
11839;SDS011;5979;50.800;4.904;2023-01-19T02:11:23;18.03;;;11.97;;
11839;SDS011;5979;50.800;4.904;2023-01-19T02:14:08;16.67;;;11.33;;
11839;SDS011;5979;50.800;4.904;2023-01-19T02:16:34;15.97;;;10.70;;
11839;SDS011;5979;50.800;4.904;2023-01-19T02:19:02;19.67;;;12.00;;
11839;SDS011;5979;50.800;4.904;2023-01-19T02:24:06;17.47;;;10.73;;
11839;SDS011;5979;50.800;4.904;2023-01-19T02:26:34;17.90;;;11.53;;
11839;SDS011;5979;50.800;4.904;2023-01-19T02:29:05;15.97;;;10.63;;
11839;SDS011;5979;50.800;4.904;2023-01-19T02:31:33;18.17;;;11.23;;
11839;SDS011;5979;50.800;4.904;2023-01-19T02:34:01;18.00;;;11.67;;
11839;SDS011;5979;50.800;4.904;2023-01-19T02:36:29;16.50;;;11.43;;
11839;SDS011;5979;50.800;4.904;2023-01-19T02:39:02;15.33;;;10.77;;
11839;SDS011;5979;50.800;4.904;2023-01-19T02:41:31;18.67;;;11.23;;
11839;SDS011;5979;50.800;4.904;2023-01-19T02:44:00;14.43;;;10.83;;
11839;SDS011;5979;50.800;4.904;2023-01-19T02:46:27;18.80;;;10.30;;
11839;SDS011;5979;50.800;4.904;2023-01-19T02:48:57;17.30;;;11.70;;
11839;SDS011;5979;50.800;4.904;2023-01-19T02:51:23;19.20;;;11.83;;
11839;SDS011;5979;50.800;4.904;2023-01-19T03:02:09;22.20;;;12.20;;
11839;SDS011;5979;50.800;4.904;2023-01-19T03:10:06;18.23;;;11.37;;
11839;SDS011;5979;50.800;4.904;2023-01-19T03:15:26;18.77;;;11.27;;
11839;SDS011;5979;50.800;4.904;2023-01-19T03:18:01;20.37;;;11.83;;
11839;SDS011;5979;50.800;4.904;2023-01-19T03:20:30;15.83;;;10.97;;
11839;SDS011;5979;50.800;4.904;2023-01-19T03:22:59;19.50;;;11.60;;
11839;SDS011;5979;50.800;4.904;2023-01-19T03:25:29;18.10;;;11.43;;
11839;SDS011;5979;50.800;4.904;2023-01-19T03:27:59;16.37;;;10.90;;
11839;SDS011;5979;50.800;4.904;2023-01-19T03:30:45;14.53;;;10.90;;
11839;SDS011;5979;50.800;4.904;2023-01-19T03:33:28;17.23;;;12.10;;
11839;SDS011;5979;50.800;4.904;2023-01-19T03:35:57;18.20;;;11.60;;
11839;SDS011;5979;50.800;4.904;2023-01-19T03:38:28;23.53;;;11.97;;
11839;SDS011;5979;50.800;4.904;2023-01-19T03:41:01;18.47;;;11.10;;
11839;SDS011;5979;50.800;4.904;2023-01-19T03:43:32;18.47;;;12.00;;
11839;SDS011;5979;50.800;4.904;2023-01-19T03:46:00;21.63;;;12.13;;
11839;SDS011;5979;50.800;4.904;2023-01-19T03:48:28;15.93;;;11.33;;
11839;SDS011;5979;50.800;4.904;2023-01-19T03:50:55;18.80;;;12.40;;
11839;SDS011;5979;50.800;4.904;2023-01-19T03:53:20;18.80;;;11.77;;
11839;SDS011;5979;50.800;4.904;2023-01-19T03:55:47;20.90;;;12.73;;
11839;SDS011;5979;50.800;4.904;2023-01-19T03:58:15;20.50;;;12.20;;
11839;SDS011;5979;50.800;4.904;2023-01-19T04:00:41;17.17;;;11.83;;
11839;SDS011;5979;50.800;4.904;2023-01-19T04:03:14;18.50;;;11.10;;
11839;SDS011;5979;50.800;4.904;2023-01-19T04:05:41;19.60;;;12.43;;
11839;SDS011;5979;50.800;4.904;2023-01-19T04:08:08;19.37;;;11.53;;
11839;SDS011;5979;50.800;4.904;2023-01-19T04:10:34;23.97;;;12.50;;
11839;SDS011;5979;50.800;4.904;2023-01-19T04:13:00;22.37;;;11.53;;
11839;SDS011;5979;50.800;4.904;2023-01-19T04:15:26;21.70;;;12.13;;
11839;SDS011;5979;50.800;4.904;2023-01-19T04:17:53;21.67;;;12.73;;
11839;SDS011;5979;50.800;4.904;2023-01-19T04:20:20;19.93;;;11.80;;
11839;SDS011;5979;50.800;4.904;2023-01-19T04:22:46;17.93;;;10.57;;
11839;SDS011;5979;50.800;4.904;2023-01-19T04:25:13;17.67;;;11.70;;
11839;SDS011;5979;50.800;4.904;2023-01-19T04:27:39;19.33;;;11.53;;
11839;SDS011;5979;50.800;4.904;2023-01-19T04:30:05;18.47;;;11.50;;
11839;SDS011;5979;50.800;4.904;2023-01-19T04:32:32;18.43;;;11.60;;
11839;SDS011;5979;50.800;4.904;2023-01-19T04:34:57;21.53;;;11.80;;
11839;SDS011;5979;50.800;4.904;2023-01-19T04:37:23;18.20;;;11.30;;
11839;SDS011;5979;50.800;4.904;2023-01-19T04:39:49;18.47;;;12.10;;
11839;SDS011;5979;50.800;4.904;2023-01-19T04:42:15;18.57;;;12.23;;
11839;SDS011;5979;50.800;4.904;2023-01-19T04:44:41;20.23;;;12.00;;
11839;SDS011;5979;50.800;4.904;2023-01-19T04:47:07;17.93;;;11.60;;
11839;SDS011;5979;50.800;4.904;2023-01-19T04:49:32;21.90;;;11.27;;
11839;SDS011;5979;50.800;4.904;2023-01-19T04:52:01;16.83;;;10.93;;
11839;SDS011;5979;50.800;4.904;2023-01-19T04:54:28;21.00;;;12.23;;
11839;SDS011;5979;50.800;4.904;2023-01-19T04:56:54;21.27;;;12.80;;
11839;SDS011;5979;50.800;4.904;2023-01-19T04:59:20;19.47;;;12.10;;
11839;SDS011;5979;50.800;4.904;2023-01-19T05:01:46;18.67;;;12.07;;
11839;SDS011;5979;50.800;4.904;2023-01-19T05:04:11;24.67;;;12.80;;
11839;SDS011;5979;50.800;4.904;2023-01-19T05:06:37;19.63;;;12.27;;
11839;SDS011;5979;50.800;4.904;2023-01-19T05:09:03;20.37;;;12.90;;
11839;SDS011;5979;50.800;4.904;2023-01-19T05:11:29;21.73;;;13.40;;
11839;SDS011;5979;50.800;4.904;2023-01-19T05:13:55;20.03;;;12.53;;
11839;SDS011;5979;50.800;4.904;2023-01-19T05:16:20;25.33;;;13.97;;
11839;SDS011;5979;50.800;4.904;2023-01-19T05:18:46;20.80;;;13.30;;
11839;SDS011;5979;50.800;4.904;2023-01-19T05:21:12;24.27;;;13.63;;
11839;SDS011;5979;50.800;4.904;2023-01-19T05:23:38;24.03;;;13.40;;
11839;SDS011;5979;50.800;4.904;2023-01-19T05:26:03;25.53;;;13.47;;
11839;SDS011;5979;50.800;4.904;2023-01-19T05:28:30;24.40;;;13.07;;
11839;SDS011;5979;50.800;4.904;2023-01-19T05:30:56;21.37;;;13.83;;
11839;SDS011;5979;50.800;4.904;2023-01-19T05:33:22;22.20;;;13.07;;
11839;SDS011;5979;50.800;4.904;2023-01-19T05:35:49;26.27;;;12.53;;
11839;SDS011;5979;50.800;4.904;2023-01-19T05:38:16;24.73;;;13.73;;
11839;SDS011;5979;50.800;4.904;2023-01-19T05:40:42;22.20;;;13.93;;
11839;SDS011;5979;50.800;4.904;2023-01-19T05:43:07;23.47;;;13.23;;
11839;SDS011;5979;50.800;4.904;2023-01-19T05:45:34;24.90;;;14.07;;
11839;SDS011;5979;50.800;4.904;2023-01-19T05:48:00;23.77;;;13.90;;
11839;SDS011;5979;50.800;4.904;2023-01-19T05:50:26;20.77;;;12.60;;
11839;SDS011;5979;50.800;4.904;2023-01-19T05:52:51;23.97;;;12.97;;
11839;SDS011;5979;50.800;4.904;2023-01-19T05:55:20;24.50;;;14.17;;
11839;SDS011;5979;50.800;4.904;2023-01-19T05:57:46;24.07;;;14.37;;
11839;SDS011;5979;50.800;4.904;2023-01-19T06:00:12;20.47;;;14.00;;
11839;SDS011;5979;50.800;4.904;2023-01-19T06:02:38;23.13;;;14.23;;
11839;SDS011;5979;50.800;4.904;2023-01-19T06:05:04;24.80;;;13.40;;
11839;SDS011;5979;50.800;4.904;2023-01-19T06:07:30;22.27;;;13.97;;
11839;SDS011;5979;50.800;4.904;2023-01-19T06:09:56;20.57;;;13.47;;
11839;SDS011;5979;50.800;4.904;2023-01-19T06:12:22;23.80;;;14.13;;
11839;SDS011;5979;50.800;4.904;2023-01-19T06:14:48;25.77;;;13.87;;
11839;SDS011;5979;50.800;4.904;2023-01-19T06:17:14;24.90;;;13.43;;
11839;SDS011;5979;50.800;4.904;2023-01-19T06:19:40;27.63;;;14.37;;
11839;SDS011;5979;50.800;4.904;2023-01-19T06:22:06;22.77;;;14.03;;
11839;SDS011;5979;50.800;4.904;2023-01-19T06:24:32;19.93;;;13.80;;
11839;SDS011;5979;50.800;4.904;2023-01-19T06:26:58;23.03;;;12.80;;
11839;SDS011;5979;50.800;4.904;2023-01-19T06:29:24;24.80;;;13.53;;
11839;SDS011;5979;50.800;4.904;2023-01-19T06:31:51;23.13;;;14.40;;
11839;SDS011;5979;50.800;4.904;2023-01-19T06:34:17;19.57;;;13.37;;
11839;SDS011;5979;50.800;4.904;2023-01-19T06:36:44;24.30;;;13.97;;
11839;SDS011;5979;50.800;4.904;2023-01-19T06:39:10;21.87;;;13.30;;
11839;SDS011;5979;50.800;4.904;2023-01-19T06:41:36;21.73;;;13.80;;
11839;SDS011;5979;50.800;4.904;2023-01-19T06:44:02;23.00;;;14.20;;
11839;SDS011;5979;50.800;4.904;2023-01-19T06:46:29;24.73;;;12.97;;
11839;SDS011;5979;50.800;4.904;2023-01-19T06:48:55;23.70;;;13.20;;
11839;SDS011;5979;50.800;4.904;2023-01-19T06:51:21;22.57;;;13.23;;
11839;SDS011;5979;50.800;4.904;2023-01-19T06:53:47;23.47;;;13.47;;
11839;SDS011;5979;50.800;4.904;2023-01-19T06:56:13;23.73;;;13.17;;
11839;SDS011;5979;50.800;4.904;2023-01-19T06:58:39;22.37;;;13.63;;
11839;SDS011;5979;50.800;4.904;2023-01-19T07:01:06;21.90;;;13.40;;
11839;SDS011;5979;50.800;4.904;2023-01-19T07:03:34;21.10;;;14.03;;
11839;SDS011;5979;50.800;4.904;2023-01-19T07:06:02;23.83;;;14.17;;
11839;SDS011;5979;50.800;4.904;2023-01-19T07:08:30;21.73;;;13.70;;
11839;SDS011;5979;50.800;4.904;2023-01-19T07:11:14;19.83;;;12.67;;
11839;SDS011;5979;50.800;4.904;2023-01-19T07:13:40;21.93;;;13.13;;
11839;SDS011;5979;50.800;4.904;2023-01-19T07:16:11;24.37;;;13.30;;
11839;SDS011;5979;50.800;4.904;2023-01-19T07:18:38;24.00;;;13.97;;
11839;SDS011;5979;50.800;4.904;2023-01-19T07:21:05;19.73;;;12.70;;
11839;SDS011;5979;50.800;4.904;2023-01-19T07:23:31;26.53;;;14.23;;
11839;SDS011;5979;50.800;4.904;2023-01-19T07:25:57;21.93;;;13.20;;
11839;SDS011;5979;50.800;4.904;2023-01-19T07:28:27;25.20;;;14.33;;
11839;SDS011;5979;50.800;4.904;2023-01-19T07:30:55;24.77;;;13.87;;
11839;SDS011;5979;50.800;4.904;2023-01-19T07:33:21;22.37;;;14.27;;
11839;SDS011;5979;50.800;4.904;2023-01-19T07:35:48;25.53;;;14.87;;
11839;SDS011;5979;50.800;4.904;2023-01-19T07:38:14;25.37;;;14.03;;
11839;SDS011;5979;50.800;4.904;2023-01-19T07:40:41;26.50;;;15.67;;
11839;SDS011;5979;50.800;4.904;2023-01-19T07:43:07;22.33;;;14.37;;
11839;SDS011;5979;50.800;4.904;2023-01-19T07:45:33;28.30;;;15.67;;
11839;SDS011;5979;50.800;4.904;2023-01-19T07:48:00;28.37;;;15.50;;
11839;SDS011;5979;50.800;4.904;2023-01-19T07:50:26;31.10;;;14.57;;
11839;SDS011;5979;50.800;4.904;2023-01-19T07:52:53;27.90;;;15.07;;
11839;SDS011;5979;50.800;4.904;2023-01-19T07:55:19;28.10;;;14.97;;
11839;SDS011;5979;50.800;4.904;2023-01-19T07:57:49;26.07;;;13.93;;
11839;SDS011;5979;50.800;4.904;2023-01-19T08:00:19;26.43;;;14.53;;
11839;SDS011;5979;50.800;4.904;2023-01-19T08:02:48;24.47;;;14.20;;
11839;SDS011;5979;50.800;4.904;2023-01-19T08:05:18;24.80;;;14.47;;
11839;SDS011;5979;50.800;4.904;2023-01-19T08:07:45;25.80;;;14.70;;
11839;SDS011;5979;50.800;4.904;2023-01-19T08:10:15;25.47;;;14.67;;
11839;SDS011;5979;50.800;4.904;2023-01-19T08:12:41;24.10;;;13.47;;
11839;SDS011;5979;50.800;4.904;2023-01-19T08:15:08;24.10;;;14.43;;
11839;SDS011;5979;50.800;4.904;2023-01-19T08:17:34;25.10;;;14.67;;
11839;SDS011;5979;50.800;4.904;2023-01-19T08:20:00;23.90;;;15.23;;
11839;SDS011;5979;50.800;4.904;2023-01-19T08:22:26;25.63;;;14.57;;
11839;SDS011;5979;50.800;4.904;2023-01-19T08:24:52;25.23;;;14.83;;
11839;SDS011;5979;50.800;4.904;2023-01-19T08:27:19;23.93;;;14.63;;
11839;SDS011;5979;50.800;4.904;2023-01-19T08:29:45;23.27;;;14.77;;
11839;SDS011;5979;50.800;4.904;2023-01-19T08:32:11;22.80;;;13.77;;
11839;SDS011;5979;50.800;4.904;2023-01-19T08:34:36;25.23;;;13.50;;
11839;SDS011;5979;50.800;4.904;2023-01-19T08:37:02;25.20;;;14.37;;
11839;SDS011;5979;50.800;4.904;2023-01-19T08:39:28;21.77;;;13.93;;
11839;SDS011;5979;50.800;4.904;2023-01-19T08:41:54;28.93;;;14.43;;
11839;SDS011;5979;50.800;4.904;2023-01-19T08:44:20;25.40;;;13.97;;
11839;SDS011;5979;50.800;4.904;2023-01-19T08:46:46;24.23;;;14.60;;
11839;SDS011;5979;50.800;4.904;2023-01-19T08:49:12;21.17;;;13.60;;
11839;SDS011;5979;50.800;4.904;2023-01-19T08:51:38;24.60;;;13.83;;
11839;SDS011;5979;50.800;4.904;2023-01-19T08:54:03;20.30;;;13.30;;
11839;SDS011;5979;50.800;4.904;2023-01-19T08:56:29;24.67;;;13.70;;
11839;SDS011;5979;50.800;4.904;2023-01-19T08:58:55;21.23;;;13.30;;
11839;SDS011;5979;50.800;4.904;2023-01-19T09:01:21;22.03;;;14.37;;
11839;SDS011;5979;50.800;4.904;2023-01-19T09:03:47;25.47;;;15.07;;
11839;SDS011;5979;50.800;4.904;2023-01-19T09:06:14;25.20;;;14.87;;
11839;SDS011;5979;50.800;4.904;2023-01-19T09:08:43;21.40;;;14.90;;
11839;SDS011;5979;50.800;4.904;2023-01-19T09:11:10;22.00;;;14.13;;
11839;SDS011;5979;50.800;4.904;2023-01-19T09:13:37;25.67;;;14.07;;
11839;SDS011;5979;50.800;4.904;2023-01-19T09:16:04;27.47;;;15.40;;
11839;SDS011;5979;50.800;4.904;2023-01-19T09:18:31;25.53;;;15.37;;
11839;SDS011;5979;50.800;4.904;2023-01-19T09:20:59;25.67;;;14.67;;
11839;SDS011;5979;50.800;4.904;2023-01-19T09:23:25;25.60;;;14.50;;
11839;SDS011;5979;50.800;4.904;2023-01-19T09:25:55;22.63;;;14.47;;
11839;SDS011;5979;50.800;4.904;2023-01-19T09:28:22;25.93;;;15.50;;
11839;SDS011;5979;50.800;4.904;2023-01-19T09:30:48;24.83;;;14.10;;
11839;SDS011;5979;50.800;4.904;2023-01-19T09:33:14;25.03;;;15.03;;
11839;SDS011;5979;50.800;4.904;2023-01-19T09:35:41;23.47;;;15.20;;
11839;SDS011;5979;50.800;4.904;2023-01-19T09:38:10;25.47;;;15.03;;
11839;SDS011;5979;50.800;4.904;2023-01-19T09:40:40;24.73;;;13.97;;
11839;SDS011;5979;50.800;4.904;2023-01-19T09:43:13;24.30;;;14.87;;
11839;SDS011;5979;50.800;4.904;2023-01-19T09:48:53;28.10;;;14.50;;
11839;SDS011;5979;50.800;4.904;2023-01-19T09:51:25;23.47;;;14.73;;
11839;SDS011;5979;50.800;4.904;2023-01-19T09:56:38;23.13;;;14.50;;
11839;SDS011;5979;50.800;4.904;2023-01-19T10:10:36;25.30;;;14.43;;
11839;SDS011;5979;50.800;4.904;2023-01-19T10:13:24;28.70;;;15.57;;
11839;SDS011;5979;50.800;4.904;2023-01-19T10:16:07;27.70;;;15.20;;
11839;SDS011;5979;50.800;4.904;2023-01-19T10:18:44;24.63;;;14.30;;
11839;SDS011;5979;50.800;4.904;2023-01-19T10:21:29;25.13;;;14.43;;
11839;SDS011;5979;50.800;4.904;2023-01-19T10:24:14;23.33;;;14.57;;
11839;SDS011;5979;50.800;4.904;2023-01-19T10:26:46;24.20;;;13.43;;
11839;SDS011;5979;50.800;4.904;2023-01-19T10:32:19;25.30;;;14.47;;
11839;SDS011;5979;50.800;4.904;2023-01-19T10:34:51;25.30;;;15.17;;
11839;SDS011;5979;50.800;4.904;2023-01-19T10:37:35;28.03;;;13.93;;
11839;SDS011;5979;50.800;4.904;2023-01-19T10:42:34;25.13;;;14.37;;
11839;SDS011;5979;50.800;4.904;2023-01-19T10:45:00;24.43;;;13.63;;
11839;SDS011;5979;50.800;4.904;2023-01-19T10:47:30;26.87;;;14.13;;
11839;SDS011;5979;50.800;4.904;2023-01-19T10:49:59;24.63;;;13.50;;
11839;SDS011;5979;50.800;4.904;2023-01-19T10:52:44;22.23;;;12.63;;
11839;SDS011;5979;50.800;4.904;2023-01-19T10:55:34;20.67;;;13.13;;
11839;SDS011;5979;50.800;4.904;2023-01-19T10:58:25;21.73;;;12.27;;
11839;SDS011;5979;50.800;4.904;2023-01-19T11:00:53;19.43;;;12.37;;
11839;SDS011;5979;50.800;4.904;2023-01-19T11:03:22;20.30;;;12.20;;
11839;SDS011;5979;50.800;4.904;2023-01-19T11:05:49;20.23;;;12.67;;
11839;SDS011;5979;50.800;4.904;2023-01-19T11:08:22;23.20;;;12.80;;
11839;SDS011;5979;50.800;4.904;2023-01-19T11:11:01;20.20;;;12.43;;
11839;SDS011;5979;50.800;4.904;2023-01-19T11:13:28;20.90;;;13.10;;
11839;SDS011;5979;50.800;4.904;2023-01-19T11:16:03;20.70;;;12.53;;
11839;SDS011;5979;50.800;4.904;2023-01-19T11:18:32;24.40;;;12.20;;
11839;SDS011;5979;50.800;4.904;2023-01-19T11:21:03;23.00;;;13.37;;
11839;SDS011;5979;50.800;4.904;2023-01-19T11:23:34;17.67;;;12.37;;
11839;SDS011;5979;50.800;4.904;2023-01-19T11:26:08;19.40;;;11.77;;
11839;SDS011;5979;50.800;4.904;2023-01-19T11:28:44;20.10;;;12.60;;
11839;SDS011;5979;50.800;4.904;2023-01-19T11:33:49;21.97;;;12.70;;
11839;SDS011;5979;50.800;4.904;2023-01-19T11:36:26;17.52;;;11.60;;
11839;SDS011;5979;50.800;4.904;2023-01-19T11:38:57;19.93;;;11.63;;
11839;SDS011;5979;50.800;4.904;2023-01-19T11:41:52;19.83;;;10.85;;
11839;SDS011;5979;50.800;4.904;2023-01-19T11:44:25;17.38;;;10.23;;
11839;SDS011;5979;50.800;4.904;2023-01-19T11:46:58;15.63;;;10.48;;
11839;SDS011;5979;50.800;4.904;2023-01-19T11:52:30;14.73;;;10.35;;
11839;SDS011;5979;50.800;4.904;2023-01-19T11:58:17;14.95;;;9.52;;
11839;SDS011;5979;50.800;4.904;2023-01-19T12:00:48;16.85;;;9.43;;
11839;SDS011;5979;50.800;4.904;2023-01-19T12:03:31;14.13;;;9.65;;
11839;SDS011;5979;50.800;4.904;2023-01-19T12:06:11;15.27;;;9.77;;
11839;SDS011;5979;50.800;4.904;2023-01-19T12:08:45;14.10;;;9.57;;
11839;SDS011;5979;50.800;4.904;2023-01-19T12:11:29;23.40;;;11.00;;
11839;SDS011;5979;50.800;4.904;2023-01-19T12:13:58;16.30;;;9.35;;
11839;SDS011;5979;50.800;4.904;2023-01-19T12:16:26;15.38;;;9.63;;
11839;SDS011;5979;50.800;4.904;2023-01-19T12:18:58;14.45;;;9.30;;
11839;SDS011;5979;50.800;4.904;2023-01-19T12:21:27;14.88;;;9.02;;
11839;SDS011;5979;50.800;4.904;2023-01-19T12:26:40;16.30;;;8.75;;
11839;SDS011;5979;50.800;4.904;2023-01-19T12:29:10;14.48;;;8.48;;
11839;SDS011;5979;50.800;4.904;2023-01-19T12:31:39;12.90;;;8.15;;
11839;SDS011;5979;50.800;4.904;2023-01-19T12:36:55;13.38;;;9.27;;
11839;SDS011;5979;50.800;4.904;2023-01-19T12:39:27;12.85;;;8.98;;
11839;SDS011;5979;50.800;4.904;2023-01-19T12:42:27;14.77;;;9.35;;
11839;SDS011;5979;50.800;4.904;2023-01-19T12:44:46;16.10;;;8.63;;
11839;SDS011;5979;50.800;4.904;2023-01-19T12:49:45;14.10;;;9.27;;
11839;SDS011;5979;50.800;4.904;2023-01-19T12:52:30;16.67;;;8.93;;
11839;SDS011;5979;50.800;4.904;2023-01-19T12:57:32;12.25;;;8.18;;
11839;SDS011;5979;50.800;4.904;2023-01-19T13:00:05;12.80;;;8.38;;
11839;SDS011;5979;50.800;4.904;2023-01-19T13:02:55;11.82;;;8.43;;
11839;SDS011;5979;50.800;4.904;2023-01-19T13:05:24;14.50;;;8.68;;
11839;SDS011;5979;50.800;4.904;2023-01-19T13:13:24;14.00;;;7.75;;
11839;SDS011;5979;50.800;4.904;2023-01-19T13:15:51;11.80;;;7.43;;
11839;SDS011;5979;50.800;4.904;2023-01-19T13:18:25;12.05;;;7.55;;
11839;SDS011;5979;50.800;4.904;2023-01-19T13:23:28;13.02;;;7.45;;
11839;SDS011;5979;50.800;4.904;2023-01-19T13:26:22;10.45;;;7.00;;
11839;SDS011;5979;50.800;4.904;2023-01-19T13:28:52;14.63;;;7.53;;
11839;SDS011;5979;50.800;4.904;2023-01-19T13:31:23;10.65;;;7.25;;
11839;SDS011;5979;50.800;4.904;2023-01-19T13:33:53;12.10;;;7.28;;
11839;SDS011;5979;50.800;4.904;2023-01-19T13:38:50;11.50;;;7.47;;
11839;SDS011;5979;50.800;4.904;2023-01-19T13:41:17;16.58;;;8.43;;
11839;SDS011;5979;50.800;4.904;2023-01-19T13:43:47;11.32;;;7.68;;
11839;SDS011;5979;50.800;4.904;2023-01-19T13:46:17;15.10;;;8.93;;
11839;SDS011;5979;50.800;4.904;2023-01-19T13:48:51;12.07;;;8.10;;
11839;SDS011;5979;50.800;4.904;2023-01-19T13:51:19;14.25;;;8.65;;
11839;SDS011;5979;50.800;4.904;2023-01-19T13:53:58;9.75;;;7.72;;
11839;SDS011;5979;50.800;4.904;2023-01-19T13:56:28;11.23;;;8.23;;
11839;SDS011;5979;50.800;4.904;2023-01-19T14:01:34;11.40;;;7.45;;
11839;SDS011;5979;50.800;4.904;2023-01-19T14:04:01;11.85;;;8.30;;
11839;SDS011;5979;50.800;4.904;2023-01-19T14:06:32;17.60;;;8.32;;
11839;SDS011;5979;50.800;4.904;2023-01-19T14:09:18;9.93;;;7.65;;
11839;SDS011;5979;50.800;4.904;2023-01-19T14:14:29;8.82;;;7.38;;
11839;SDS011;5979;50.800;4.904;2023-01-19T14:16:55;12.40;;;7.43;;
11839;SDS011;5979;50.800;4.904;2023-01-19T14:19:21;9.05;;;7.47;;
11839;SDS011;5979;50.800;4.904;2023-01-19T14:21:56;16.75;;;7.78;;
11839;SDS011;5979;50.800;4.904;2023-01-19T14:24:23;9.75;;;7.18;;
11839;SDS011;5979;50.800;4.904;2023-01-19T14:26:53;13.43;;;8.07;;
11839;SDS011;5979;50.800;4.904;2023-01-19T14:29:42;11.18;;;8.40;;
11839;SDS011;5979;50.800;4.904;2023-01-19T14:32:13;16.27;;;8.48;;
11839;SDS011;5979;50.800;4.904;2023-01-19T14:39:45;12.57;;;8.68;;
11839;SDS011;5979;50.800;4.904;2023-01-19T14:42:17;14.25;;;8.80;;
11839;SDS011;5979;50.800;4.904;2023-01-19T14:44:48;16.88;;;9.20;;
11839;SDS011;5979;50.800;4.904;2023-01-19T14:47:35;14.50;;;9.25;;
11839;SDS011;5979;50.800;4.904;2023-01-19T14:50:04;15.27;;;9.80;;
11839;SDS011;5979;50.800;4.904;2023-01-19T14:52:53;13.90;;;8.65;;
11839;SDS011;5979;50.800;4.904;2023-01-19T14:55:27;14.10;;;9.73;;
11839;SDS011;5979;50.800;4.904;2023-01-19T14:58:10;13.80;;;9.57;;
11839;SDS011;5979;50.800;4.904;2023-01-19T15:00:38;12.63;;;9.30;;
11839;SDS011;5979;50.800;4.904;2023-01-19T15:03:05;13.43;;;9.70;;
11839;SDS011;5979;50.800;4.904;2023-01-19T15:05:31;12.03;;;9.07;;
11839;SDS011;5979;50.800;4.904;2023-01-19T15:07:57;14.77;;;9.67;;
11839;SDS011;5979;50.800;4.904;2023-01-19T15:10:23;17.63;;;9.97;;
11839;SDS011;5979;50.800;4.904;2023-01-19T15:12:50;14.40;;;9.73;;
11839;SDS011;5979;50.800;4.904;2023-01-19T15:15:28;11.23;;;8.93;;
11839;SDS011;5979;50.800;4.904;2023-01-19T15:17:56;13.87;;;9.03;;
11839;SDS011;5979;50.800;4.904;2023-01-19T15:20:23;16.33;;;10.30;;
11839;SDS011;5979;50.800;4.904;2023-01-19T15:22:49;16.47;;;11.07;;
11839;SDS011;5979;50.800;4.904;2023-01-19T15:25:16;13.93;;;10.13;;
11839;SDS011;5979;50.800;4.904;2023-01-19T15:27:44;14.57;;;9.90;;
11839;SDS011;5979;50.800;4.904;2023-01-19T15:30:20;15.73;;;9.47;;
11839;SDS011;5979;50.800;4.904;2023-01-19T15:32:48;15.03;;;10.07;;
11839;SDS011;5979;50.800;4.904;2023-01-19T15:35:15;14.27;;;9.57;;
11839;SDS011;5979;50.800;4.904;2023-01-19T15:37:46;13.80;;;9.13;;
11839;SDS011;5979;50.800;4.904;2023-01-19T15:40:13;13.73;;;9.70;;
11839;SDS011;5979;50.800;4.904;2023-01-19T15:42:39;11.57;;;9.93;;
11839;SDS011;5979;50.800;4.904;2023-01-19T15:45:29;16.43;;;9.20;;
11839;SDS011;5979;50.800;4.904;2023-01-19T15:47:59;11.50;;;8.97;;
11839;SDS011;5979;50.800;4.904;2023-01-19T15:50:27;14.40;;;9.37;;
11839;SDS011;5979;50.800;4.904;2023-01-19T15:52:53;12.43;;;9.73;;
11839;SDS011;5979;50.800;4.904;2023-01-19T15:55:19;14.40;;;9.77;;
11839;SDS011;5979;50.800;4.904;2023-01-19T15:57:45;17.87;;;11.03;;
11839;SDS011;5979;50.800;4.904;2023-01-19T16:00:12;14.67;;;9.60;;
11839;SDS011;5979;50.800;4.904;2023-01-19T16:02:38;13.97;;;9.40;;
11839;SDS011;5979;50.800;4.904;2023-01-19T16:05:04;13.23;;;10.00;;
11839;SDS011;5979;50.800;4.904;2023-01-19T16:07:31;14.87;;;9.93;;
11839;SDS011;5979;50.800;4.904;2023-01-19T16:09:58;12.47;;;9.90;;
11839;SDS011;5979;50.800;4.904;2023-01-19T16:12:24;15.00;;;10.07;;
11839;SDS011;5979;50.800;4.904;2023-01-19T16:14:49;15.57;;;10.60;;